Time;durP1;ratioP1;P1;durP2;ratioP2;P2;SDS_P1;SDS_P2;PMS_P1;PMS_P2;Temp;Humidity;BMP_temperature;BMP_pressure;BME280_temperature;BME280_humidity;BME280_pressure;Samples;Min_cycle;Max_cycle;Signal;HPM_P1;HPM_P2
2022/05/03 00:00:09;;;;;;;5.93;5.20;;;6.00;99.90;;;;;;5054567;28;20067;-69
2022/05/03 00:03:01;;;;;;;7.82;5.43;;;6.00;99.90;;;;;;5068112;28;20498;-69
2022/05/03 00:05:49;;;;;;;6.63;5.38;;;6.00;99.90;;;;;;5079594;28;20036;-69
2022/05/03 00:08:27;;;;;;;7.63;5.38;;;6.00;99.90;;;;;;5071125;28;20048;-68
2022/05/03 00:11:02;;;;;;;5.47;4.93;;;6.00;99.90;;;;;;5068263;28;20395;-68
2022/05/03 00:13:33;;;;;;;7.72;5.78;;;5.90;99.90;;;;;;5089546;28;20112;-68
2022/05/03 00:15:59;;;;;;;6.72;5.45;;;5.90;99.90;;;;;;5089599;28;20032;-68
2022/05/03 00:18:25;;;;;;;5.65;5.07;;;5.90;99.90;;;;;;5068173;28;20264;-68
2022/05/03 00:20:52;;;;;;;8.27;5.72;;;5.80;99.90;;;;;;5089467;28;20468;-68
2022/05/03 00:23:18;;;;;;;7.05;5.95;;;5.80;99.90;;;;;;5090486;28;20040;-68
2022/05/03 00:25:44;;;;;;;6.75;5.68;;;5.80;99.90;;;;;;5074845;28;20040;-68
2022/05/03 00:28:12;;;;;;;7.70;5.65;;;5.70;99.90;;;;;;5092875;28;20039;-68
2022/05/03 00:30:38;;;;;;;8.57;6.22;;;5.70;99.90;;;;;;5073669;28;20115;-68
2022/05/03 00:33:05;;;;;;;6.78;5.32;;;5.70;99.90;;;;;;5090077;28;20115;-68
2022/05/03 00:35:32;;;;;;;7.18;5.95;;;5.70;99.90;;;;;;5057262;28;20052;-68
2022/05/03 00:37:57;;;;;;;8.68;5.88;;;5.60;99.90;;;;;;5074406;28;20109;-68
2022/05/03 00:40:25;;;;;;;6.68;5.30;;;5.60;99.90;;;;;;5074921;28;20434;-68
2022/05/03 00:43:02;;;;;;;9.23;5.78;;;5.50;99.90;;;;;;5074151;28;20075;-68
2022/05/03 00:45:31;;;;;;;6.90;6.03;;;5.50;99.90;;;;;;5052293;28;20048;-68
2022/05/03 00:48:15;;;;;;;7.00;6.00;;;5.50;99.90;;;;;;5072673;28;20427;-68
2022/05/03 00:50:52;;;;;;;9.15;5.93;;;5.50;99.90;;;;;;5072966;28;20044;-68
2022/05/03 00:53:59;;;;;;;7.07;5.78;;;5.50;99.90;;;;;;5073622;28;20059;-69
2022/05/03 00:56:55;;;;;;;6.93;6.22;;;5.50;99.90;;;;;;5069097;28;20044;-69
2022/05/03 00:59:33;;;;;;;6.50;5.53;;;5.40;99.90;;;;;;5090745;28;20506;-68
2022/05/03 01:02:04;;;;;;;7.45;6.70;;;5.40;99.90;;;;;;5089547;28;20479;-68
2022/05/03 01:04:30;;;;;;;6.28;5.68;;;5.30;99.90;;;;;;5089907;28;20135;-68
2022/05/03 01:07:09;;;;;;;8.10;5.50;;;5.30;99.90;;;;;;5092228;28;20040;-68
2022/05/03 01:09:40;;;;;;;8.27;6.00;;;5.30;99.90;;;;;;5072103;28;20123;-68
2022/05/03 01:12:24;;;;;;;8.57;6.65;;;5.30;99.90;;;;;;5073719;28;20044;-68
2022/05/03 01:15:07;;;;;;;8.93;6.75;;;5.20;99.90;;;;;;5091172;28;20096;-68
2022/05/03 01:17:53;;;;;;;8.20;6.85;;;5.20;99.90;;;;;;5073708;28;20461;-68
2022/05/03 01:20:30;;;;;;;7.50;6.80;;;5.10;99.90;;;;;;5071867;28;20059;-68
2022/05/03 01:23:08;;;;;;;11.93;6.78;;;5.10;99.90;;;;;;5091277;28;20865;-68
2022/05/03 01:25:55;;;;;;;8.25;6.28;;;5.10;99.90;;;;;;5070311;28;20392;-68
2022/05/03 01:28:49;;;;;;;8.07;7.18;;;5.10;99.90;;;;;;5071081;28;20081;-68
2022/05/03 01:31:16;;;;;;;8.05;5.80;;;5.10;99.90;;;;;;5073212;28;20076;-68
2022/05/03 01:33:44;;;;;;;11.48;6.20;;;5.00;99.90;;;;;;5055830;28;20096;-68
2022/05/03 01:36:10;;;;;;;8.60;5.88;;;5.00;99.90;;;;;;5072498;28;20040;-68
2022/05/03 01:38:41;;;;;;;8.30;6.07;;;5.00;99.90;;;;;;5055061;28;20060;-68
2022/05/03 01:41:42;;;;;;;8.88;6.60;;;5.00;99.90;;;;;;5090539;28;20106;-68
2022/05/03 01:44:19;;;;;;;8.75;6.80;;;4.90;99.90;;;;;;5057552;28;20131;-68
2022/05/03 01:46:50;;;;;;;7.47;6.00;;;4.90;99.90;;;;;;5091582;28;20070;-68
2022/05/03 01:53:16;;;;;;;8.10;6.25;;;4.80;99.90;;;;;;5071653;28;20615;-68
2022/05/03 01:55:59;;;;;;;7.68;6.43;;;4.80;99.90;;;;;;5070968;28;20044;-68
2022/05/03 01:58:34;;;;;;;7.72;6.28;;;4.70;99.90;;;;;;5090522;28;20044;-68
2022/05/03 02:01:09;;;;;;;7.40;6.07;;;4.70;99.90;;;;;;5089309;28;20067;-68
2022/05/03 02:03:47;;;;;;;6.93;6.22;;;4.70;99.90;;;;;;5089462;28;20040;-68
2022/05/03 02:06:15;;;;;;;9.43;6.00;;;4.70;99.90;;;;;;5071892;28;20052;-68
2022/05/03 02:09:01;;;;;;;9.55;6.82;;;4.70;99.90;;;;;;5090692;28;20595;-68
2022/05/03 02:11:34;;;;;;;8.77;6.53;;;4.70;99.90;;;;;;5090630;28;20410;-67
2022/05/03 02:16:59;;;;;;;7.70;6.28;;;4.80;99.90;;;;;;5073045;28;20109;-69
2022/05/03 02:19:34;;;;;;;7.28;6.22;;;4.70;99.90;;;;;;5071153;28;20167;-69
2022/05/03 02:22:32;;;;;;;7.65;6.60;;;4.70;99.90;;;;;;5071125;28;20036;-68
2022/05/03 02:25:17;;;;;;;8.57;6.32;;;4.70;99.90;;;;;;5070766;28;20054;-68
2022/05/03 02:27:52;;;;;;;8.52;6.82;;;4.70;99.90;;;;;;5089765;28;20059;-68
2022/05/03 02:30:19;;;;;;;8.07;5.93;;;4.60;99.90;;;;;;5072378;28;20044;-68
2022/05/03 02:33:19;;;;;;;7.43;6.38;;;4.60;99.90;;;;;;5054250;28;20040;-68
2022/05/03 02:35:51;;;;;;;6.82;6.03;;;4.70;99.90;;;;;;5045704;28;20060;-68
2022/05/03 02:38:24;;;;;;;8.43;6.13;;;4.60;99.90;;;;;;5086800;28;20039;-68
2022/05/03 02:40:52;;;;;;;7.32;6.50;;;4.50;99.90;;;;;;5070699;28;20070;-68
2022/05/03 02:43:25;;;;;;;6.97;6.28;;;4.50;99.90;;;;;;5056087;28;20054;-68
2022/05/03 02:46:23;;;;;;;7.70;6.85;;;4.60;99.90;;;;;;5068340;28;20032;-68
2022/05/03 02:49:05;;;;;;;7.70;6.47;;;4.50;99.90;;;;;;5054505;28;20384;-68
2022/05/03 02:51:43;;;;;;;10.10;7.30;;;4.50;99.90;;;;;;5053871;28;20131;-67
2022/05/03 02:54:41;;;;;;;8.60;7.43;;;4.60;99.90;;;;;;5070110;28;20510;-68
2022/05/03 02:57:23;;;;;;;9.80;6.85;;;4.50;99.90;;;;;;5071985;28;20055;-68
2022/05/03 03:03:10;;;;;;;9.20;6.80;;;4.50;99.90;;;;;;5088897;28;20048;-69
2022/05/03 03:05:41;;;;;;;7.28;6.57;;;4.50;99.90;;;;;;5069497;28;20127;-68
2022/05/03 03:08:10;;;;;;;10.25;7.38;;;4.40;99.90;;;;;;5069973;28;20043;-68
2022/05/03 03:11:02;;;;;;;9.85;7.47;;;4.40;99.90;;;;;;5070450;28;20488;-68
2022/05/03 03:14:12;;;;;;;9.40;7.47;;;4.40;99.90;;;;;;5068802;28;20044;-68
2022/05/03 03:17:02;;;;;;;8.85;6.68;;;4.30;99.90;;;;;;5078282;28;20044;-68
2022/05/03 03:19:52;;;;;;;8.88;7.72;;;4.30;99.90;;;;;;5069881;28;20130;-68
2022/05/03 03:22:21;;;;;;;10.98;7.50;;;4.30;99.90;;;;;;5067612;28;20056;-68
2022/05/03 03:24:49;;;;;;;10.70;7.95;;;4.20;99.90;;;;;;5071725;28;20128;-68
2022/05/03 03:27:17;;;;;;;9.82;7.75;;;4.20;99.90;;;;;;5088617;28;20044;-68
2022/05/03 03:29:46;;;;;;;7.88;7.07;;;4.20;99.90;;;;;;5070183;28;20070;-68
2022/05/03 03:32:15;;;;;;;9.73;7.25;;;4.20;99.90;;;;;;5069672;28;20066;-67
2022/05/03 03:34:42;;;;;;;10.20;7.22;;;4.20;99.90;;;;;;5067665;28;20047;-67
2022/05/03 03:37:11;;;;;;;9.50;7.40;;;4.20;99.90;;;;;;5069618;28;20066;-67
2022/05/03 03:39:36;;;;;;;8.32;6.93;;;4.20;99.90;;;;;;5088045;28;20117;-68
2022/05/03 03:42:03;;;;;;;8.35;7.45;;;4.10;99.90;;;;;;5088991;28;20075;-68
2022/05/03 03:44:30;;;;;;;9.10;7.45;;;4.10;99.90;;;;;;5070342;28;20531;-68
2022/05/03 03:46:58;;;;;;;9.13;7.07;;;4.10;99.90;;;;;;5088836;28;20046;-68
2022/05/03 03:49:23;;;;;;;8.80;7.47;;;4.10;99.90;;;;;;5086411;28;20060;-67
2022/05/03 03:51:52;;;;;;;9.00;7.75;;;4.00;99.90;;;;;;5069592;28;20047;-67
2022/05/03 03:54:19;;;;;;;8.63;6.90;;;4.00;99.90;;;;;;5067156;28;20105;-67
2022/05/03 03:56:45;;;;;;;9.55;7.18;;;4.00;99.90;;;;;;5090508;28;20032;-67
2022/05/03 03:59:13;;;;;;;7.60;6.70;;;4.00;99.90;;;;;;5092899;28;20116;-67
2022/05/03 04:01:40;;;;;;;7.60;6.63;;;3.90;99.90;;;;;;5056810;28;20052;-67
2022/05/03 04:04:08;;;;;;;8.45;7.65;;;4.00;99.90;;;;;;5076055;28;20048;-67
2022/05/03 04:06:35;;;;;;;8.02;6.95;;;4.00;99.90;;;;;;5074492;28;20556;-67
2022/05/03 04:09:01;;;;;;;7.97;6.55;;;4.00;99.90;;;;;;5097575;28;20506;-67
2022/05/03 04:11:27;;;;;;;8.55;6.65;;;4.00;99.90;;;;;;5072926;28;20472;-67
2022/05/03 04:13:53;;;;;;;9.70;7.00;;;3.90;99.90;;;;;;5076992;28;20047;-67
2022/05/03 04:16:19;;;;;;;8.73;6.90;;;3.90;99.90;;;;;;5078983;28;20051;-67
2022/05/03 04:18:45;;;;;;;10.45;8.05;;;4.00;99.90;;;;;;5092030;28;20031;-67
2022/05/03 04:21:15;;;;;;;10.43;8.15;;;4.00;99.90;;;;;;5076536;28;20385;-68
2022/05/03 04:23:40;;;;;;;11.15;7.78;;;4.10;99.90;;;;;;5074965;28;20464;-68
2022/05/03 04:26:06;;;;;;;10.40;7.57;;;4.10;99.90;;;;;;5076369;28;20044;-68
2022/05/03 04:28:32;;;;;;;9.32;7.90;;;4.20;99.90;;;;;;5075616;28;20108;-68
2022/05/03 04:30:57;;;;;;;8.60;7.70;;;4.30;99.90;;;;;;5095458;28;20047;-67
2022/05/03 04:33:23;;;;;;;10.40;8.90;;;4.30;99.90;;;;;;5095536;28;20063;-67
2022/05/03 04:35:49;;;;;;;9.45;8.05;;;4.40;99.90;;;;;;5075515;28;20565;-67
2022/05/03 04:38:14;;;;;;;10.02;8.82;;;4.50;99.90;;;;;;5076479;28;20398;-67
2022/05/03 04:40:40;;;;;;;9.80;8.80;;;4.60;99.90;;;;;;5077747;28;20123;-67
2022/05/03 04:43:06;;;;;;;9.77;8.52;;;4.70;99.90;;;;;;5095746;28;20039;-67
2022/05/03 04:45:31;;;;;;;9.02;8.00;;;4.80;99.90;;;;;;5095002;28;20323;-68
2022/05/03 04:47:57;;;;;;;11.02;9.15;;;4.90;99.90;;;;;;5076133;28;20352;-68
2022/05/03 04:50:23;;;;;;;13.10;10.82;;;5.00;99.90;;;;;;5096238;28;20032;-68
2022/05/03 04:52:48;;;;;;;14.05;10.98;;;5.00;99.90;;;;;;5095786;28;20038;-68
2022/05/03 04:55:14;;;;;;;16.08;10.02;;;5.10;99.90;;;;;;5075376;28;20052;-68
2022/05/03 04:57:40;;;;;;;10.30;9.20;;;5.20;99.90;;;;;;5077056;28;20040;-68
2022/05/03 05:00:06;;;;;;;10.90;9.80;;;5.30;99.90;;;;;;5091724;28;20084;-68
2022/05/03 05:02:32;;;;;;;13.75;9.82;;;5.30;99.90;;;;;;5093354;28;20118;-68
2022/05/03 05:04:58;;;;;;;10.90;9.80;;;5.40;99.90;;;;;;5092182;28;20055;-67
2022/05/03 05:07:23;;;;;;;13.55;10.95;;;5.40;99.90;;;;;;5095603;28;20424;-67
2022/05/03 05:12:33;;;;;;;12.68;10.63;;;5.60;99.90;;;;;;5092299;28;20051;-68
2022/05/03 05:14:59;;;;;;;13.80;11.07;;;5.80;99.90;;;;;;5091121;28;20561;-67
2022/05/03 05:17:25;;;;;;;13.45;12.05;;;5.90;99.90;;;;;;5091612;28;20032;-67
2022/05/03 05:19:51;;;;;;;14.38;11.77;;;6.10;99.90;;;;;;5093713;28;20078;-67
2022/05/03 05:22:16;;;;;;;13.48;11.93;;;6.20;99.90;;;;;;5074480;28;20043;-67
2022/05/03 05:24:42;;;;;;;14.65;12.18;;;6.30;99.90;;;;;;5091240;28;20480;-68
2022/05/03 05:27:08;;;;;;;13.00;11.60;;;6.50;99.90;;;;;;5091154;28;20419;-67
2022/05/03 05:29:34;;;;;;;13.80;12.40;;;6.60;99.90;;;;;;5073168;28;20052;-67
2022/05/03 05:31:59;;;;;;;18.95;13.73;;;6.70;99.90;;;;;;5091594;28;20033;-68
2022/05/03 05:34:25;;;;;;;16.48;13.10;;;6.70;99.90;;;;;;5088064;28;20447;-67
2022/05/03 05:36:50;;;;;;;15.02;13.10;;;6.80;99.90;;;;;;5073182;28;20040;-67
2022/05/03 05:39:16;;;;;;;15.50;13.95;;;6.90;99.90;;;;;;5089477;28;20040;-68
2022/05/03 05:41:42;;;;;;;14.88;13.38;;;7.10;99.90;;;;;;5091014;28;20126;-67
2022/05/03 05:44:10;;;;;;;19.20;15.05;;;7.20;99.90;;;;;;5090412;28;20077;-67
2022/05/03 05:46:35;;;;;;;16.92;14.63;;;7.30;99.90;;;;;;5072275;28;20131;-67
2022/05/03 05:49:01;;;;;;;16.65;14.55;;;7.40;99.90;;;;;;5071363;28;20135;-67
2022/05/03 05:51:27;;;;;;;16.85;14.95;;;7.60;99.90;;;;;;5089291;28;20063;-68
2022/05/03 05:53:53;;;;;;;16.85;15.13;;;7.70;99.90;;;;;;5089410;28;20154;-68
2022/05/03 05:56:18;;;;;;;16.63;14.90;;;7.80;99.90;;;;;;5071612;28;20048;-67
2022/05/03 05:58:44;;;;;;;17.77;15.88;;;7.80;99.90;;;;;;5073677;28;20129;-68
2022/05/03 06:01:10;;;;;;;19.17;17.15;;;8.00;99.90;;;;;;5089985;28;21445;-68
2022/05/03 06:03:37;;;;;;;22.58;18.50;;;8.20;99.90;;;;;;5087870;28;20454;-68
2022/05/03 06:06:03;;;;;;;20.90;18.70;;;8.30;99.90;;;;;;5072082;28;20036;-68
2022/05/03 06:08:29;;;;;;;20.35;18.20;;;8.40;99.90;;;;;;5072727;28;20042;-68
2022/05/03 06:10:58;;;;;;;21.58;19.38;;;8.50;99.90;;;;;;5053082;28;20047;-68
2022/05/03 06:13:23;;;;;;;21.48;19.23;;;8.40;99.90;;;;;;5068957;28;20097;-67
2022/05/03 06:15:50;;;;;;;23.77;20.55;;;8.40;99.90;;;;;;5090644;28;20028;-67
2022/05/03 06:18:16;;;;;;;23.15;20.73;;;8.50;99.90;;;;;;5089846;28;20561;-68
2022/05/03 06:20:42;;;;;;;22.70;20.17;;;8.60;99.90;;;;;;5070695;28;20040;-68
2022/05/03 06:23:07;;;;;;;24.00;19.25;;;8.60;99.90;;;;;;5088873;28;20415;-68
2022/05/03 06:25:33;;;;;;;21.98;19.67;;;8.70;99.90;;;;;;5091253;28;20040;-68
2022/05/03 06:27:59;;;;;;;22.13;19.60;;;8.70;99.90;;;;;;5092130;28;20032;-68
2022/05/03 06:30:25;;;;;;;22.58;20.20;;;8.80;99.90;;;;;;5072111;28;20519;-68
2022/05/03 06:32:50;;;;;;;26.42;21.08;;;8.80;99.90;;;;;;5071298;28;20408;-68
2022/05/03 06:35:16;;;;;;;25.45;21.17;;;8.80;99.90;;;;;;5090522;28;20441;-68
2022/05/03 06:37:42;;;;;;;26.50;22.10;;;8.90;99.90;;;;;;5090836;28;20047;-68
2022/05/03 06:40:09;;;;;;;24.15;19.90;;;8.90;99.90;;;;;;5071243;28;20056;-68
2022/05/03 06:42:39;;;;;;;26.00;20.42;;;9.00;99.90;;;;;;5089362;28;20036;-68
2022/05/03 06:45:07;;;;;;;23.13;19.85;;;9.10;99.90;;;;;;5090294;28;20043;-67
2022/05/03 06:47:33;;;;;;;25.70;21.50;;;9.10;99.90;;;;;;5090538;28;20043;-67
2022/05/03 06:49:59;;;;;;;25.52;21.02;;;9.20;99.90;;;;;;5087488;28;20052;-67
2022/05/03 06:52:25;;;;;;;26.25;22.58;;;9.20;99.90;;;;;;5052877;28;20043;-68
2022/05/03 06:54:51;;;;;;;24.60;21.95;;;9.30;99.90;;;;;;5089688;28;20052;-68
2022/05/03 06:57:17;;;;;;;24.45;21.23;;;9.30;99.90;;;;;;5071106;28;20039;-67
2022/05/03 06:59:43;;;;;;;25.65;22.52;;;9.40;99.90;;;;;;5072974;28;20068;-67
2022/05/03 07:02:09;;;;;;;26.17;22.50;;;9.40;99.90;;;;;;5071739;28;20056;-68
2022/05/03 07:04:34;;;;;;;27.90;23.00;;;9.50;99.90;;;;;;5070487;28;20051;-68
2022/05/03 07:07:00;;;;;;;24.08;21.45;;;9.50;99.90;;;;;;5088853;28;20232;-68
2022/05/03 07:09:26;;;;;;;28.67;23.35;;;9.60;99.90;;;;;;5088130;28;20032;-68
2022/05/03 07:11:51;;;;;;;31.15;24.00;;;9.60;99.90;;;;;;5091663;28;20036;-68
2022/05/03 07:14:18;;;;;;;32.53;24.65;;;9.60;99.90;;;;;;5052909;28;20063;-68
2022/05/03 07:16:44;;;;;;;34.63;25.27;;;9.70;99.90;;;;;;5071186;28;20396;-68
2022/05/03 07:24:38;;;;;;;53.05;31.55;;;9.60;99.90;;;;;;5066885;28;20124;-68
2022/05/03 07:27:04;;;;;;;60.15;32.80;;;9.70;99.90;;;;;;5071761;28;20036;-68
2022/05/03 07:29:30;;;;;;;66.82;34.42;;;9.70;99.90;;;;;;5070888;28;20071;-69
2022/05/03 07:31:55;;;;;;;67.45;33.92;;;9.70;99.90;;;;;;5086816;28;20044;-68
2022/05/03 07:34:21;;;;;;;73.13;33.65;;;9.70;99.90;;;;;;5088776;28;20028;-68
2022/05/03 07:36:47;;;;;;;69.65;36.33;;;9.70;99.90;;;;;;5090138;28;20036;-68
2022/05/03 07:39:12;;;;;;;85.07;38.42;;;9.80;99.90;;;;;;5069574;28;20050;-67
2022/05/03 07:41:38;;;;;;;74.88;36.13;;;9.80;99.90;;;;;;5090195;28;20046;-67
2022/05/03 07:44:04;;;;;;;74.45;34.53;;;9.80;99.90;;;;;;5070225;28;20039;-67
2022/05/03 07:46:30;;;;;;;73.78;35.65;;;9.90;99.90;;;;;;5089095;28;20044;-67
2022/05/03 07:48:56;;;;;;;75.35;36.67;;;9.90;99.90;;;;;;5088045;28;20043;-68
2022/05/03 07:51:22;;;;;;;73.03;36.13;;;9.90;99.90;;;;;;5089708;28;20476;-68
2022/05/03 07:53:47;;;;;;;73.35;35.88;;;10.00;99.90;;;;;;5068709;28;20048;-68
2022/05/03 07:56:13;;;;;;;68.00;35.10;;;10.00;99.90;;;;;;5087320;28;20043;-68
2022/05/03 07:58:39;;;;;;;56.67;30.30;;;10.00;99.90;;;;;;5071014;28;20243;-68
2022/05/03 08:01:05;;;;;;;56.10;31.63;;;10.00;99.90;;;;;;5088350;28;20042;-68
2022/05/03 08:03:31;;;;;;;52.75;31.33;;;10.00;99.90;;;;;;5087608;28;20044;-68
2022/05/03 08:05:57;;;;;;;56.80;32.40;;;10.00;99.90;;;;;;5089556;28;20514;-68
2022/05/03 08:08:23;;;;;;;50.70;30.70;;;9.90;99.90;;;;;;5069813;28;20083;-68
2022/05/03 08:10:49;;;;;;;56.00;30.40;;;9.90;99.90;;;;;;5072459;28;20060;-68
2022/05/03 08:13:15;;;;;;;50.08;30.35;;;9.90;99.90;;;;;;5071015;28;20082;-68
2022/05/03 08:15:41;;;;;;;45.97;30.50;;;9.90;99.90;;;;;;5070859;28;20046;-68
2022/05/03 08:18:07;;;;;;;42.67;29.17;;;9.90;99.90;;;;;;5088639;28;20233;-68
2022/05/03 08:20:33;;;;;;;44.42;28.15;;;9.90;99.90;;;;;;5070446;28;20143;-68
2022/05/03 08:23:00;;;;;;;40.70;28.88;;;9.90;99.90;;;;;;5087382;28;20115;-68
2022/05/03 08:25:26;;;;;;;42.53;27.42;;;9.90;99.90;;;;;;5069305;28;20048;-68
2022/05/03 08:27:52;;;;;;;34.67;24.70;;;9.90;99.90;;;;;;5089221;28;20507;-68
2022/05/03 08:30:18;;;;;;;33.30;22.15;;;10.00;99.90;;;;;;5089196;28;20031;-67
2022/05/03 08:32:43;;;;;;;29.83;20.58;;;10.00;99.90;;;;;;5087797;28;20501;-68
2022/05/03 08:35:09;;;;;;;20.20;11.32;;;9.90;99.90;;;;;;5070718;28;20345;-68
2022/05/03 08:43:05;;;;;;;13.18;7.32;;;10.00;99.90;;;;;;5069580;28;20110;-68
2022/05/03 08:45:32;;;;;;;15.07;6.22;;;10.10;99.90;;;;;;5092919;28;20058;-68
2022/05/03 08:48:00;;;;;;;11.30;6.07;;;10.20;99.90;;;;;;5094065;28;20044;-68
2022/05/03 08:50:26;;;;;;;7.53;5.25;;;10.30;99.90;;;;;;5092816;28;20119;-68
2022/05/03 08:52:58;;;;;;;13.60;5.38;;;10.40;99.90;;;;;;5070678;28;20131;-68
2022/05/03 08:55:25;;;;;;;9.50;5.13;;;10.50;99.90;;;;;;5092127;28;20161;-68
2022/05/03 08:57:51;;;;;;;11.68;4.60;;;10.50;99.90;;;;;;5092456;28;20036;-68
2022/05/03 09:00:18;;;;;;;10.43;5.53;;;10.50;99.90;;;;;;5093161;28;20040;-68
2022/05/03 09:02:51;;;;;;;9.45;5.55;;;10.60;99.90;;;;;;5092422;28;20047;-68
2022/05/03 09:05:18;;;;;;;11.77;5.32;;;10.60;99.90;;;;;;5092964;28;20032;-68
2022/05/03 09:07:52;;;;;;;10.95;5.18;;;10.60;99.90;;;;;;5092807;28;20574;-68
2022/05/03 09:10:28;;;;;;;8.73;5.18;;;10.70;99.90;;;;;;5059291;28;20484;-68
2022/05/03 09:12:56;;;;;;;14.70;5.78;;;10.70;99.90;;;;;;5090375;28;20514;-68
2022/05/03 09:15:30;;;;;;;9.45;5.95;;;10.70;99.90;;;;;;5073931;28;20047;-68
2022/05/03 09:17:57;;;;;;;13.38;5.90;;;10.70;99.90;;;;;;5071166;28;20054;-68
2022/05/03 09:26:18;;;;;;;14.38;6.93;;;10.40;99.90;;;;;;5091675;28;20075;-68
2022/05/03 09:28:49;;;;;;;12.93;6.47;;;10.40;99.90;;;;;;5072758;28;20414;-68
2022/05/03 09:31:43;;;;;;;14.85;6.75;;;10.40;99.90;;;;;;5072103;28;20170;-68
2022/05/03 09:34:27;;;;;;;18.00;7.38;;;10.40;99.90;;;;;;5064485;28;20097;-68
2022/05/03 09:36:56;;;;;;;11.50;6.35;;;10.50;99.90;;;;;;5089420;28;20036;-68
2022/05/03 09:39:24;;;;;;;14.48;6.50;;;10.50;99.90;;;;;;5091728;28;20539;-68
2022/05/03 09:42:15;;;;;;;18.17;8.43;;;10.50;99.90;;;;;;5075476;28;20052;-68
2022/05/03 09:44:52;;;;;;;19.60;7.40;;;10.50;99.90;;;;;;5090557;28;20043;-68
2022/05/03 09:47:20;;;;;;;15.85;7.80;;;10.40;99.90;;;;;;5073802;28;20048;-68
2022/05/03 09:49:46;;;;;;;18.60;8.15;;;10.40;99.90;;;;;;5089031;28;20068;-68
2022/05/03 09:52:30;;;;;;;20.95;7.90;;;10.30;99.90;;;;;;5073475;28;20086;-68
2022/05/03 09:55:03;;;;;;;21.38;7.18;;;10.30;99.90;;;;;;5065837;28;20504;-68
2022/05/03 09:57:31;;;;;;;15.98;7.15;;;10.20;99.90;;;;;;5069624;28;20040;-68
2022/05/03 09:59:58;;;;;;;14.43;6.25;;;10.30;99.90;;;;;;5067698;28;20041;-68
2022/05/03 10:02:26;;;;;;;15.20;6.57;;;10.40;99.90;;;;;;5071510;28;20412;-68
2022/05/03 10:04:56;;;;;;;19.33;7.07;;;10.40;99.90;;;;;;5068924;28;20492;-68
2022/05/03 10:07:22;;;;;;;16.42;7.47;;;10.40;99.90;;;;;;5069717;28;20746;-68
2022/05/03 10:09:49;;;;;;;16.08;6.68;;;10.50;99.90;;;;;;5065647;28;20054;-68
2022/05/03 10:12:16;;;;;;;16.55;6.28;;;10.60;99.90;;;;;;5069179;28;20580;-68
2022/05/03 10:14:43;;;;;;;14.73;6.13;;;10.70;99.90;;;;;;5068918;28;20045;-68
2022/05/03 10:20:42;;;;;;;18.77;6.20;;;10.70;99.90;;;;;;5070768;28;20522;-68
2022/05/03 10:23:32;;;;;;;19.60;6.18;;;10.70;99.90;;;;;;5065332;28;20048;-68
2022/05/03 10:26:03;;;;;;;17.15;6.10;;;10.70;99.90;;;;;;5070329;28;20123;-68
2022/05/03 10:28:59;;;;;;;16.77;6.55;;;10.80;99.90;;;;;;5070997;28;20052;-68
2022/05/03 10:31:24;;;;;;;24.83;6.97;;;10.90;99.90;;;;;;5062075;28;20431;-67
2022/05/03 10:33:51;;;;;;;16.30;5.60;;;10.90;99.90;;;;;;5085680;28;20097;-68
2022/05/03 10:36:35;;;;;;;13.55;5.95;;;10.90;99.90;;;;;;5069346;28;20116;-67
2022/05/03 10:39:16;;;;;;;18.92;6.05;;;10.90;99.90;;;;;;5068267;28;20036;-68
2022/05/03 10:41:56;;;;;;;16.92;6.15;;;11.00;99.90;;;;;;5069454;28;20119;-68
2022/05/03 10:44:56;;;;;;;14.85;5.30;;;11.00;99.90;;;;;;5068846;28;20040;-68
2022/05/03 10:47:41;;;;;;;17.95;6.55;;;11.00;99.90;;;;;;5062884;28;20467;-68
2022/05/03 10:50:12;;;;;;;10.10;5.55;;;11.00;99.90;;;;;;5070302;28;20040;-68
2022/05/03 10:52:58;;;;;;;13.77;5.95;;;11.10;99.90;;;;;;5070026;28;20457;-68
2022/05/03 10:55:35;;;;;;;14.82;5.07;;;11.10;99.90;;;;;;5085324;28;20056;-68
2022/05/03 10:58:25;;;;;;;17.83;5.55;;;11.20;99.90;;;;;;5090820;28;20523;-68
2022/05/03 11:01:01;;;;;;;13.48;4.60;;;11.40;99.90;;;;;;5070379;28;20544;-68
2022/05/03 11:03:27;;;;;;;13.27;4.47;;;11.50;99.90;;;;;;5071317;28;20067;-68
2022/05/03 11:06:26;;;;;;;15.55;4.40;;;11.50;99.90;;;;;;5071774;28;20032;-68
2022/05/03 11:11:44;;;;;;;13.38;4.05;;;11.60;99.90;;;;;;5088486;28;20036;-68
2022/05/03 11:14:16;;;;;;;11.07;3.58;;;11.70;99.90;;;;;;5071723;28;20097;-68
2022/05/03 11:16:52;;;;;;;12.02;4.03;;;11.80;99.90;;;;;;5070515;28;20557;-69
2022/05/03 11:19:19;;;;;;;8.55;3.83;;;11.90;99.90;;;;;;5087056;28;20058;-69
2022/05/03 11:21:46;;;;;;;17.17;4.38;;;11.90;99.90;;;;;;5070834;28;20055;-68
2022/05/03 11:24:20;;;;;;;11.68;3.67;;;12.00;99.90;;;;;;5090065;28;20066;-68
2022/05/03 11:26:47;;;;;;;11.85;3.63;;;12.20;99.90;;;;;;5071668;28;20082;-68
2022/05/03 11:29:14;;;;;;;13.48;3.78;;;12.40;99.90;;;;;;5089861;28;20521;-68
2022/05/03 11:31:46;;;;;;;10.80;3.67;;;12.50;99.90;;;;;;5089453;28;20369;-66
2022/05/03 11:34:12;;;;;;;12.45;3.72;;;12.60;98.70;;;;;;5089019;28;20052;-67
2022/05/03 11:36:38;;;;;;;13.70;4.00;;;12.70;99.40;;;;;;5070865;28;20368;-67
2022/05/03 11:39:03;;;;;;;19.70;4.57;;;12.80;99.10;;;;;;5089773;28;20460;-68
2022/05/03 11:41:30;;;;;;;12.85;3.92;;;12.80;97.20;;;;;;5071775;28;20040;-68
2022/05/03 11:43:56;;;;;;;14.70;3.55;;;12.80;97.00;;;;;;5071324;28;20079;-68
2022/05/03 11:46:23;;;;;;;11.80;3.42;;;12.90;97.20;;;;;;5071046;28;20491;-68
2022/05/03 11:48:59;;;;;;;10.90;2.83;;;13.10;96.80;;;;;;5070845;28;20040;-68
2022/05/03 11:57:11;;;;;;;7.90;2.67;;;13.10;94.20;;;;;;5089629;28;20044;-68
2022/05/03 11:59:41;;;;;;;12.10;3.25;;;13.20;94.80;;;;;;5088939;28;20071;-68
2022/05/03 12:02:19;;;;;;;7.20;2.97;;;13.10;94.10;;;;;;5088043;28;20040;-69
2022/05/03 12:05:02;;;;;;;7.82;2.38;;;13.10;93.70;;;;;;5069772;28;20544;-69
2022/05/03 12:07:29;;;;;;;10.10;2.70;;;13.30;92.60;;;;;;5069953;28;20504;-69
2022/05/03 12:09:55;;;;;;;7.13;2.55;;;13.40;93.10;;;;;;5089485;28;20119;-68
2022/05/03 12:12:43;;;;;;;9.75;2.55;;;13.30;90.80;;;;;;5070973;28;20059;-68
2022/05/03 12:15:21;;;;;;;9.05;2.00;;;13.40;92.20;;;;;;5072149;28;20506;-69
2022/05/03 12:18:00;;;;;;;9.20;2.90;;;13.40;90.10;;;;;;5089953;28;20169;-69
2022/05/03 12:20:51;;;;;;;8.57;2.47;;;13.50;90.30;;;;;;5091919;28;20094;-69
2022/05/03 12:23:23;;;;;;;7.13;2.40;;;13.60;89.10;;;;;;5072779;28;20119;-69
2022/05/03 12:25:54;;;;;;;8.63;2.22;;;13.60;88.90;;;;;;5093138;28;20504;-69
2022/05/03 12:28:33;;;;;;;8.52;2.40;;;13.60;88.30;;;;;;5090375;28;20067;-68
2022/05/03 12:30:59;;;;;;;7.03;2.30;;;13.80;88.50;;;;;;5093328;28;20078;-68
2022/05/03 12:33:30;;;;;;;7.65;2.00;;;14.00;86.80;;;;;;5073288;28;20476;-69
2022/05/03 12:35:56;;;;;;;11.43;2.50;;;14.10;85.90;;;;;;5075084;28;20455;-68
2022/05/03 12:38:24;;;;;;;8.25;2.28;;;14.10;84.70;;;;;;5074092;28;20039;-69
2022/05/03 12:40:58;;;;;;;6.43;2.30;;;14.20;85.60;;;;;;5093403;28;20075;-69
2022/05/03 12:43:26;;;;;;;;;;;14.10;81.60;;;;;;5064072;28;20075;-69
2022/05/03 12:46:07;;;;;;;6.07;1.85;;;14.00;81.30;;;;;;5093373;28;20019;-69
2022/05/03 12:48:36;;;;;;;8.35;2.22;;;14.10;81.50;;;;;;5071522;28;20143;-69
2022/05/03 12:51:03;;;;;;;8.63;2.10;;;14.20;84.50;;;;;;5092942;28;20494;-69
2022/05/03 12:53:34;;;;;;;7.65;2.08;;;14.20;81.60;;;;;;5092848;28;20534;-69
2022/05/03 12:58:47;;;;;;;9.77;2.13;;;14.30;82.10;;;;;;5092857;28;20559;-69
2022/05/03 13:01:14;;;;;;;9.00;1.25;;;14.30;81.10;;;;;;5092040;28;20097;-69
2022/05/03 13:03:41;;;;;;;7.78;1.60;;;14.40;81.70;;;;;;5092225;28;20071;-68
2022/05/03 13:06:08;;;;;;;6.38;1.40;;;14.60;81.40;;;;;;5073886;28;20040;-68
2022/05/03 13:08:33;;;;;;;7.75;1.60;;;14.70;79.60;;;;;;5074343;28;20296;-68
2022/05/03 13:11:00;;;;;;;7.07;1.63;;;14.80;79.10;;;;;;5092512;28;21180;-69
2022/05/03 13:13:25;;;;;;;6.70;1.70;;;14.80;77.10;;;;;;5059003;28;20124;-68
2022/05/03 13:15:52;;;;;;;8.38;1.70;;;14.70;75.60;;;;;;5093791;28;20111;-68
2022/05/03 13:18:18;;;;;;;7.28;1.67;;;14.40;76.10;;;;;;5091421;28;20039;-68
2022/05/03 13:20:43;;;;;;;6.63;1.50;;;14.60;76.20;;;;;;5091623;28;20536;-68
2022/05/03 13:23:10;;;;;;;9.07;1.67;;;14.70;77.60;;;;;;5092642;28;20036;-69
2022/05/03 13:25:36;;;;;;;6.88;1.70;;;14.70;75.60;;;;;;5073412;28;20051;-69
2022/05/03 13:28:02;;;;;;;8.82;1.75;;;14.70;75.00;;;;;;5073918;28;20046;-69
2022/05/03 13:30:28;;;;;;;8.48;1.42;;;14.60;74.90;;;;;;5074378;28;20044;-69
2022/05/03 13:32:54;;;;;;;6.85;2.15;;;14.70;75.60;;;;;;5072961;28;20514;-69
2022/05/03 13:40:28;;;;;;;5.60;1.52;;;14.60;74.40;;;;;;5092154;28;20446;-69
2022/05/03 13:40:51;;;;;;;5.40;1.23;;;14.70;74.80;;;;;;5092146;28;20064;-69
2022/05/03 13:43:17;;;;;;;5.75;1.70;;;14.70;74.70;;;;;;5074759;28;20043;-69
2022/05/03 13:45:44;;;;;;;5.85;1.42;;;14.70;73.70;;;;;;5073612;28;20042;-69
2022/05/03 13:48:10;;;;;;;5.00;1.48;;;14.50;73.50;;;;;;5091620;28;20440;-68
2022/05/03 13:50:39;;;;;;;5.18;1.38;;;14.50;73.00;;;;;;5091277;28;20075;-67